Tiempo atmosférico en la estación meteorológica de Olmedo, Depósito de Agua, Valladolid (786 m.)



Fecha
DESCASC
Temp. máxima en grados centígrados (hora)
DESCASC
Temp. mínima en grados centígrados (hora)
DESCASC
Temp. media en grados centígrados
DESCASC
Racha de viento máxima en m/sg (hora)
DESCASC
Velocidad máxima media en intervalos de 10 minutos(hora)
DESCASC
Precipitaciones diarias en mm
DESCASC
Precipitaciones de 00:00 a 06:00 en mm
DESCASC
Precipitaciones de 06:00 a 12:00 en mm
DESCASC
Precipitaciones de 12:00 a 18:00 en mm
DESCASC
Precipitaciones de 18:00 a 24:00 en mm
DESCASC
22-08-2019 31.4 (17:40) 13.2 (07:50) 22.3 9.72 (16:30) 5 (00:40) 0 0 0 0 0
21-08-2019 30.3 (17:20) 13.9 (08:00) 22.1 7.78 (22:30) 5.28 (23:20) 0 0 0 0 0
20-08-2019 27.8 (17:40) 13.8 (07:40) 20.8 10 (20:30) 6.39 (19:30) 0 0 0 0 0
19-08-2019 25.5 (16:00) 14.9 (08:00) 20.2 7.78 (23:30) 5.28 (21:30) 0 0 0 0 0
18-08-2019 30.1 (17:20) 15 (00:00) 22.6 11.11 (16:30) 6.11 (19:30) 0 0 0 0 0
17-08-2019 34.4 (17:50) 15.5 (00:00) 25 9.72 (16:00) 5 (16:20) 0 0 0 0 0
16-08-2019 33.3 (18:10) 14.6 (00:00) 23.9 8.61 (16:50) 4.72 (01:40) 0 0 0 0 0
15-08-2019 32.1 (17:50) 15.6 (00:00) 23.8 6.67 (20:10) 4.72 (23:59) 0 0 0 0 0
14-08-2019 31.2 (17:50) 10.8 (00:00) 21 6.94 (19:30) 4.17 (02:40) 0 0 0 0 0
13-08-2019 27.1 (18:10) 9.2 (00:00) 18.2 8.06 (02:10) 5.28 (02:00) 0 0 0 0 0
12-08-2019 24 (18:00) 8.9 (00:00) 16.4 10.28 (23:30) 5.83 (20:40) 0 0 0 0 0
11-08-2019 23.9 (17:30) 14 (00:00) 18.9 10.28 (22:50) 5.83 (22:50) 0.2 0.2 0 0 0
10-08-2019 27.9 (18:50) 11 (00:00) 19.4 6.94 (18:00) 3.61 (07:10) 0.2 0 0.2 0 0
09-08-2019 25.4 (16:20) 15.7 (00:00) 20.5 13.89 (18:00) 9.72 (09:40) 1.2 0 0 0.4 0.8
08-08-2019 32.1 (17:10) 18.2 (00:00) 25.1 15 (17:30) 9.44 (18:10) 0 0 0 0 0
07-08-2019 27.3 (15:30) 18.2 (00:00) 22.8 10.56 (14:40) 7.5 (17:30) 0 0 0 0 0
06-08-2019 32.2 (16:20) 15.8 (00:00) 24 10.56 (22:10) 6.39 (22:10) 0 0 0 0 0
05-08-2019 33.6 (17:20) 14.4 (00:00) 24 8.61 (15:20) 5 (19:00) 0 0 0 0 0
04-08-2019 33.8 (18:10) 16.7 (00:00) 25.3 9.44 (15:50) 5 (18:20) 0 0 0 0 0
03-08-2019 34.4 (17:30) 15 (00:00) 24.7 8.89 (18:40) 5.28 (16:40) 0 0 0 0 0
02-08-2019 33.7 (17:00) 13.1 (00:00) 23.4 6.94 (19:10) 3.89 (00:10) 0 0 0 0 0
01-08-2019 30.9 (18:50) 14.4 (00:00) 22.6 8.33 (17:30) 4.17 (17:30) 0 0 0 0 0
31-07-2019 31.7 (17:50) 10.6 (00:00) 21.2 9.44 (19:30) 5.28 (18:50) 0 0 0 0 0
30-07-2019 26.5 (18:30) 9.6 (00:00) 18.1 7.78 (20:40) 5 (20:50) 0 0 0 0 0
29-07-2019 27 (17:20) 13 (00:00) 20 10.83 (15:30) 6.39 (19:30) 0 0 0 0 0
28-07-2019 27.9 (19:30) 9.9 (00:00) 18.9 7.22 (17:50) 4.17 (10:20) 0 0 0 0 0
27-07-2019 23.6 (17:30) 14.8 (00:00) 19.2 11.39 (18:10) 6.39 (18:30) 0 0 0 0 0
26-07-2019 27.2 (17:20) 16.9 (00:00) 22.1 10.56 (18:30) 4.72 (18:30) 0 0 0 0 0

Gráficas

Temp. máximas Temp. mínimas Temp. medias Precipitaciones Rachas de viento máximas Velocidades máximas media en intervalos de 10 minutos

Datos horarios

Fecha y hora oficial Temperatura (ºC) Velocidad del viento (km/h) Dirección del viento Racha (km/h) Dirección de racha Precipitación (mm) Presión (hPa) Tendencia (hPa) Humedad (%)
2019-08-24 23:00:00 26.1 8 Este 11 Sudeste 0 -- -- 28
2019-08-24 22:00:00 28.6 5 Norte 9 Norte 0 -- -- 25
2019-08-24 21:00:00 30.1 5 Norte 14 Norte 0 -- -- 24
2019-08-24 20:00:00 31.5 6 Norte 14 Noroeste 0 -- -- 22
2019-08-24 19:00:00 33.3 8 Oeste 20 Oeste 0 -- -- 20
2019-08-24 18:00:00 32.7 9 Oeste 22 Sudoeste 0 -- -- 21
2019-08-24 17:00:00 33.8 7 Noroeste 31 Oeste 0 -- -- 21
2019-08-24 16:00:00 32.6 10 Sudoeste 27 Sudoeste 0 -- -- 22
2019-08-24 15:00:00 32.9 11 Sudoeste 26 Sudoeste 0 -- -- 22
2019-08-24 14:00:00 32.4 5 Noroeste 15 Norte 0 -- -- 25
2019-08-24 13:00:00 30.2 8 Oeste 20 Noroeste 0 -- -- 29
2019-08-24 12:00:00 28.3 7 Oeste 14 Oeste 0 -- -- 31
2019-08-24 11:00:00 25.9 3 Oeste 6 Oeste 0 -- -- 35
2019-08-24 10:00:00 21.7 2 Sur 7 Este 0 -- -- 39
2019-08-24 09:00:00 18 3 Sudeste 12 Sur 0 -- -- 42
2019-08-24 08:00:00 15 6 Sudeste 20 Sur 0 -- -- 46
2019-08-24 07:00:00 16.6 18 Sur 23 Sur 0 -- -- 45
2019-08-24 06:00:00 16.2 8 Sudeste 20 Este 0 -- -- 42
2019-08-24 05:00:00 16.4 8 Sur 12 Sudeste 0 -- -- 43
2019-08-24 04:00:00 16.4 8 Sudeste 13 Sudeste 0 -- -- 40
2019-08-24 03:00:00 18 12 Este 15 Este 0 -- -- 38
2019-08-24 02:00:00 21.4 10 Sudeste 17 Sur 0 -- -- 31
2019-08-24 01:00:00 22.3 15 Sur 21 Sur 0 -- -- 29
2019-08-24 00:00:00 23.7 8 Este 10 Sudeste 0 -- -- 28
2019-08-23 23:00:00 25.6 6 Norte 11 Norte 0 -- -- 26
2019-08-23 22:00:00 26.9 7 Norte 13 Noroeste 0 -- -- 24
2019-08-23 21:00:00 29.1 7 Noroeste 18 Noroeste 0 -- -- 22
2019-08-23 20:00:00 31.3 8 Noroeste 22 Norte 0 -- -- 21
2019-08-23 19:00:00 32.1 10 Norte 26 Oeste 0 -- -- 20
2019-08-23 18:00:00 33 11 Norte 32 Oeste 0 -- -- 20
2019-08-23 17:00:00 32.9 14 Noroeste 30 Noroeste 0 -- -- 19
2019-08-23 16:00:00 32.7 9 Noroeste 27 Norte 0 -- -- 21
2019-08-23 15:00:00 32.3 9 Oeste 27 Sudoeste 0 -- -- 21
2019-08-23 14:00:00 31.6 9 Noroeste 23 Oeste 0 -- -- 23
2019-08-23 13:00:00 30.7 9 Sur 24 Sudoeste 0 -- -- 24
2019-08-23 12:00:00 28.8 11 Sudoeste 24 Sudeste 0 -- -- 28
2019-08-23 11:00:00 23.3 8 Este 14 Este 0 -- -- 35
2019-08-23 10:00:00 19.1 6 Este 10 Sudeste 0 -- -- 36
2019-08-23 09:00:00 16.2 5 Este 9 Este 0 -- -- 38
2019-08-23 08:00:00 13.8 6 Este 9 Este 0 -- -- 41
2019-08-23 07:00:00 13.2 5 Este 11 Este 0 -- -- 40
2019-08-23 06:00:00 14.3 6 Este 12 Este 0 -- -- 37
2019-08-23 05:00:00 15.3 2 Norte 8 Sudeste 0 -- -- 34
2019-08-23 04:00:00 16.7 4 Este 6 Este 0 -- -- 32
2019-08-23 03:00:00 17.6 3 Este 9 Sudeste 0 -- -- 31
2019-08-23 02:00:00 16.8 6 Sur 8 Sudeste 0 -- -- 30
2019-08-23 01:00:00 19.7 4 Este 15 Este 0 -- -- 26
2019-08-23 00:00:00 21.3 10 Este 19 Nordeste 0 -- -- 22
2019-08-22 23:00:00 23.7 9 Nordeste 22 Nordeste 0 -- -- 18
2019-08-22 22:00:00 24.8 12 Norte 17 Norte 0 -- -- 17
2019-08-22 21:00:00 27.3 6 Norte 19 Norte 0 -- -- 14
2019-08-22 20:00:00 30 10 Norte 21 Norte 0 -- -- 12
2019-08-22 19:00:00 31.3 7 Norte 23 Norte 0 -- -- 12
2019-08-22 18:00:00 31.1 13 Nordeste 24 Norte 0 -- -- 13
2019-08-22 17:00:00 30.9 8 Nordeste 35 Este 0 -- -- 15
2019-08-22 16:00:00 30.2 11 Norte 28 Norte 0 -- -- 19
2019-08-22 15:00:00 29.6 14 Nordeste 27 Nordeste 0 -- -- 21
2019-08-22 14:00:00 28.9 14 Nordeste 27 Norte 0 -- -- 24
2019-08-22 13:00:00 27.3 8 Norte 22 Nordeste 0 -- -- 38
2019-08-22 12:00:00 25.3 11 Nordeste 19 Nordeste 0 -- -- 45
2019-08-22 11:00:00 22.1 9 Nordeste 15 Este 0 -- -- 55
2019-08-22 10:00:00 18.2 12 Este 18 Este 0 -- -- 67
2019-08-22 09:00:00 15.1 10 Este 18 Este 0 -- -- 78
2019-08-22 08:00:00 13.2 10 Este 15 Este 0 -- -- 82
2019-08-22 07:00:00 14 8 Este 11 Nordeste 0 -- -- 81
2019-08-22 06:00:00 14.9 10 Este 14 Este 0 -- -- 77
2019-08-22 05:00:00 16 12 Este 16 Este 0 -- -- 74
2019-08-22 04:00:00 17.1 9 Este 14 Este 0 -- -- 66
2019-08-22 03:00:00 17.8 9 Este 16 Sur 0 -- -- 60
2019-08-22 02:00:00 19 5 Nordeste 17 Este 0 -- -- 55
2019-08-22 01:00:00 20.2 15 Este 23 Sudeste 0 -- -- 51
2019-08-22 00:00:00 21.7 17 Este 28 Este 0 -- -- 46
2019-08-21 23:00:00 23.5 15 Este 28 Nordeste 0 -- -- 39
2019-08-21 22:00:00 25.4 11 Nordeste 18 Nordeste 0 -- -- 37
2019-08-21 21:00:00 27 12 Norte 18 Nordeste 0 -- -- 35
2019-08-21 20:00:00 28.2 10 Oeste 27 Oeste 0 -- -- 35
2019-08-21 19:00:00 28.3 17 Oeste 27 Sudoeste 0 -- -- 35
2019-08-21 18:00:00 30.2 10 Nordeste 25 Norte 0 -- -- 32
2019-08-21 17:00:00 29.7 13 Noroeste 24 Norte 0 -- -- 32
2019-08-21 16:00:00 29.9 9 Noroeste 18 Nordeste 0 -- -- 35
2019-08-21 15:00:00 28.2 11 Norte 18 Norte 0 -- -- 40
2019-08-21 14:00:00 26.7 4 Norte 15 Nordeste 0 -- -- 44
2019-08-21 13:00:00 25.9 9 Nordeste 17 Nordeste 0 -- -- 45
2019-08-21 12:00:00 23.4 10 Nordeste 16 Este 0 -- -- 51
2019-08-21 11:00:00 21.2 6 Nordeste 11 Nordeste 0 -- -- 55
2019-08-21 10:00:00 17.3 6 Nordeste 12 Norte 0 -- -- 65
2019-08-21 09:00:00 15 5 Norte 8 Nordeste 0 -- -- 71
2019-08-21 08:00:00 13.9 6 Nordeste 10 Este 0 -- -- 73
2019-08-21 07:00:00 14.2 5 Nordeste 9 Nordeste 0 -- -- 72
2019-08-21 06:00:00 14.8 4 Este 8 Norte 0 -- -- 71
2019-08-21 05:00:00 14.4 6 Norte 14 Norte 0 -- -- 71
2019-08-21 04:00:00 14.7 10 Norte 15 Norte 0 -- -- 70
2019-08-21 03:00:00 15.1 8 Norte 13 Norte 0 -- -- 69
2019-08-21 02:00:00 16 5 Norte 15 Norte 0 -- -- 65
2019-08-21 01:00:00 16.7 10 Norte 19 Norte 0 -- -- 62
2019-08-21 00:00:00 17.8 14 Nordeste 25 Nordeste 0 -- -- 58
2019-08-20 23:00:00 19 18 Nordeste 34 Nordeste 0 -- -- 53
2019-08-20 22:00:00 20.6 20 Nordeste 33 Nordeste 0 -- -- 48
2019-08-20 21:00:00 22.8 21 Nordeste 36 Nordeste 0 -- -- 43
2019-08-20 20:00:00 25.3 22 Norte 35 Norte 0 -- -- 37
2019-08-20 19:00:00 26.9 17 Norte 29 Norte 0 -- -- 35
2019-08-20 18:00:00 27.7 11 Norte 23 Este 0 -- -- 31
2019-08-20 17:00:00 27.4 11 Nordeste 25 Este 0 -- -- 31
2019-08-20 16:00:00 27.1 11 Norte 27 Nordeste 0 -- -- 34
2019-08-20 15:00:00 25.6 15 Norte 27 Norte 0 -- -- 37
2019-08-20 14:00:00 24.5 14 Nordeste 28 Nordeste 0 -- -- 44
2019-08-20 13:00:00 22.9 13 Norte 25 Nordeste 0 -- -- 50
2019-08-20 12:00:00 21.2 11 Nordeste 21 Nordeste 0 -- -- 55
2019-08-20 11:00:00 19.2 14 Nordeste 25 Nordeste 0 -- -- 61
2019-08-20 10:00:00 17.1 12 Nordeste 21 Nordeste 0 -- -- 68
2019-08-20 09:00:00 15.3 13 Nordeste 18 Nordeste 0 -- -- 74
2019-08-20 08:00:00 13.8 10 Nordeste 21 Nordeste 0 -- -- 81
2019-08-20 07:00:00 14 9 Norte 17 Norte 0 -- -- 80
2019-08-20 06:00:00 14.4 8 Norte 16 Norte 0 -- -- 78
2019-08-20 05:00:00 14.9 9 Noroeste 17 Nordeste 0 -- -- 76
2019-08-20 04:00:00 15.2 13 Norte 27 Norte 0 -- -- 74
2019-08-20 03:00:00 15.5 15 Nordeste 22 Nordeste 0 -- -- 71
2019-08-20 02:00:00 15.9 11 Nordeste 27 Norte 0 -- -- 69
2019-08-20 01:00:00 16.5 18 Nordeste 29 Nordeste 0 -- -- 67
2019-08-20 00:00:00 17.7 16 Nordeste 28 Nordeste 0 -- -- 64
2019-08-19 23:00:00 18.9 14 Nordeste 26 Nordeste 0 -- -- 61
2019-08-19 22:00:00 20.1 14 Nordeste 27 Nordeste 0 -- -- 57
2019-08-19 21:00:00 21.1 16 Norte 27 Norte 0 -- -- 55
2019-08-19 20:00:00 22.2 15 Norte 27 Norte 0 -- -- 53
2019-08-19 19:00:00 23.6 18 Norte 25 Norte 0 -- -- 49
2019-08-19 18:00:00 24 12 Noroeste 23 Norte 0 -- -- 48
2019-08-19 17:00:00 25 8 Norte 16 Norte 0 -- -- 42
2019-08-19 16:00:00 25.5 8 Noroeste 20 Norte 0 -- -- 44
2019-08-19 15:00:00 24.3 10 Norte 21 Noroeste 0 -- -- 49
2019-08-19 14:00:00 23.7 10 Norte 23 Nordeste 0 -- -- 50
2019-08-19 13:00:00 21.3 9 Norte 21 Noroeste 0 -- -- 56
2019-08-19 12:00:00 20.7 9 Norte 22 Nordeste 0 -- -- 58
2019-08-19 11:00:00 18.6 10 Norte 16 Norte 0 -- -- 64
2019-08-19 10:00:00 16.7 8 Norte 14 Norte 0 -- -- 70
2019-08-19 09:00:00 15.8 8 Norte 15 Norte 0 -- -- 75
2019-08-19 08:00:00 14.9 8 Norte 13 Norte 0 -- -- 80
2019-08-19 07:00:00 15.6 8 Norte 14 Norte 0 -- -- 78
2019-08-19 06:00:00 16 6 Norte 12 Norte 0 -- -- 78
2019-08-19 05:00:00 16.4 8 Nordeste 13 Noroeste 0 -- -- 77
2019-08-19 04:00:00 16.7 8 Norte 13 Norte 0 -- -- 75
2019-08-19 03:00:00 17.6 10 Norte 21 Norte 0 -- -- 72
2019-08-19 02:00:00 19 11 Norte 19 Norte 0 -- -- 66
2019-08-19 01:00:00 20.6 11 Norte 18 Noroeste 0 -- -- 59
2019-08-19 00:00:00 22.4 10 Noroeste 22 Noroeste 0 -- -- 53
2019-08-18 23:00:00 22.9 5 Noroeste 12 Noroeste 0 -- -- 53
2019-08-18 22:00:00 24 6 Noroeste 21 Noroeste 0 -- -- 50
2019-08-18 21:00:00 25.4 12 Noroeste 29 Noroeste 0 -- -- 49
2019-08-18 20:00:00 27.4 19 Noroeste 34 Noroeste 0 -- -- 46
2019-08-18 19:00:00 28 14 Noroeste 33 Oeste 0 -- -- 40
2019-08-18 18:00:00 29.8 19 Oeste 38 Oeste 0 -- -- 31
2019-08-18 17:00:00 29.8 18 Oeste 40 Sudoeste 0 -- -- 30
2019-08-18 16:00:00 29.3 18 Oeste 34 Oeste 0 -- -- 28
2019-08-18 15:00:00 27.8 9 Oeste 23 Sudoeste 0 -- -- 35
2019-08-18 14:00:00 25.9 9 Oeste 26 Oeste 0 -- -- 38
2019-08-18 13:00:00 24.4 14 Oeste 23 Oeste 0 -- -- 43
2019-08-18 12:00:00 23.1 13 Oeste 21 Sudoeste 0 -- -- 51
2019-08-18 11:00:00 21.8 8 Oeste 18 Sudoeste 0 -- -- 56
2019-08-18 10:00:00 19.7 12 Sudoeste 20 Oeste 0 -- -- 62
2019-08-18 09:00:00 17.1 10 Sudoeste 14 Sudoeste 0 -- -- 66
2019-08-18 08:00:00 15.1 9 Sudoeste 14 Sudoeste 0 -- -- 70
2019-08-18 07:00:00 15.6 9 Sudoeste 15 Oeste 0 -- -- 65
2019-08-18 06:00:00 15.8 12 Sudoeste 17 Sudoeste 0 -- -- 60
2019-08-18 05:00:00 16.8 13 Sudoeste 17 Sudoeste 0 -- -- 56
2019-08-18 04:00:00 17.8 13 Sudoeste 19 Sudoeste 0 -- -- 49
2019-08-18 03:00:00 19.2 10 Sudoeste 16 Sudoeste 0 -- -- 42
2019-08-18 02:00:00 19.4 12 Sudoeste 18 Sur 0 -- -- 41
2019-08-18 01:00:00 21 14 Sur 17 Sur 0 -- -- 36
2019-08-18 00:00:00 24.2 8 Sudoeste 11 Oeste 0 -- -- 32
2019-08-17 23:00:00 26.2 6 Noroeste 11 Noroeste 0 -- -- 28
2019-08-17 22:00:00 28 7 Noroeste 18 Noroeste 0 -- -- 27
2019-08-17 21:00:00 31.2 11 Noroeste 23 Noroeste 0 -- -- 22
2019-08-17 20:00:00 33.3 12 Oeste 28 Oeste 0 -- -- 19
2019-08-17 19:00:00 34.1 11 Oeste 33 Oeste 0 -- -- 20
2019-08-17 18:00:00 34.2 15 Oeste 35 Sudoeste 0 -- -- 19
2019-08-17 17:00:00 33.8 18 Oeste 34 Oeste 0 -- -- 19
2019-08-17 16:00:00 33.5 18 Oeste 35 Sudoeste 0 -- -- 23
2019-08-17 15:00:00 32.1 13 Oeste 27 Oeste 0 -- -- 26
2019-08-17 14:00:00 30.9 6 Oeste 22 Oeste 0 -- -- 31
2019-08-17 13:00:00 29.3 5 Noroeste 13 Oeste 0 -- -- 34
2019-08-17 12:00:00 26.9 4 Norte 10 Norte 0 -- -- 39
2019-08-17 11:00:00 24.5 3 Nordeste 9 Nordeste 0 -- -- 43
2019-08-17 10:00:00 20.9 4 Sur 9 Oeste 0 -- -- 50
2019-08-17 09:00:00 19.2 4 Sudoeste 10 Sudoeste 0 -- -- 54
2019-08-17 08:00:00 15.7 8 Sudoeste 12 Sudoeste 0 -- -- 61
2019-08-17 07:00:00 15.5 10 Sudoeste 18 Sudoeste 0 -- -- 60
2019-08-17 06:00:00 15.9 15 Sudoeste 18 Sur 0 -- -- 57
2019-08-17 05:00:00 17.2 15 Sur 21 Sur 0 -- -- 51
2019-08-17 04:00:00 17.3 15 Sur 17 Sur 0 -- -- 45
2019-08-17 03:00:00 18.9 9 Sudoeste 13 Oeste 0 -- -- 39
2019-08-17 02:00:00 20.2 9 Oeste 13 Sudoeste 0 -- -- 36
2019-08-17 01:00:00 23 8 Oeste 13 Oeste 0 -- -- 32
2019-08-17 00:00:00 24.5 8 Oeste 18 Oeste 0 -- -- 29
2019-08-16 23:00:00 26.1 9 Oeste 17 Noroeste 0 -- -- 28
2019-08-16 22:00:00 27.7 9 Noroeste 13 Noroeste 0 -- -- 25
2019-08-16 21:00:00 30.6 6 Oeste 22 Noroeste 0 -- -- 21
2019-08-16 20:00:00 32.4 11 Oeste 25 Noroeste 0 -- -- 24
2019-08-16 19:00:00 32.8 14 Noroeste 30 Noroeste 0 -- -- 26
2019-08-16 18:00:00 33.1 13 Oeste 27 Oeste 0 -- -- 28
2019-08-16 17:00:00 33.1 14 Oeste 31 Sudoeste 0 -- -- 26
2019-08-16 16:00:00 32.2 13 Oeste 28 Oeste 0 -- -- 26
2019-08-16 15:00:00 31.2 12 Oeste 22 Oeste 0 -- -- 31
2019-08-16 14:00:00 30 6 Noroeste 19 Sudoeste 0 -- -- 35
2019-08-16 13:00:00 28.2 6 Oeste 15 Oeste 0 -- -- 38
2019-08-16 12:00:00 25.5 7 Oeste 17 Noroeste 0 -- -- 44
2019-08-16 11:00:00 22.7 6 Oeste 13 Noroeste 0 -- -- 49
2019-08-16 10:00:00 20.6 4 Oeste 7 Oeste 0 -- -- 55
2019-08-16 09:00:00 18.3 3 Este 6 Noroeste 0 -- -- 63
2019-08-16 08:00:00 15.2 2 Oeste 8 Noroeste 0 -- -- 69
2019-08-16 07:00:00 14.6 5 Sudoeste 12 Sudoeste 0 -- -- 67
2019-08-16 06:00:00 17.1 3 Este 6 Sudeste 0 -- -- 63
2019-08-16 05:00:00 17.6 4 Nordeste 9 Norte 0 -- -- 62
2019-08-16 04:00:00 17.8 6 Noroeste 8 Noroeste 0 -- -- 62
2019-08-16 03:00:00 18.9 4 Noroeste 14 Nordeste 0 -- -- 56
2019-08-16 02:00:00 20.9 10 Nordeste 23 Este 0 -- -- 51
2019-08-16 01:00:00 21.6 14 Este 21 Sudeste 0 -- -- 50
2019-08-16 00:00:00 23.1 17 Este 21 Este 0 -- -- 46
2019-08-15 23:00:00 24.9 14 Este 24 Este 0 -- -- 42
2019-08-15 22:00:00 27 5 Norte 11 Noroeste 0 -- -- 36
2019-08-15 21:00:00 29.6 8 Noroeste 24 Nordeste 0 -- -- 31
2019-08-15 20:00:00 30.8 11 Norte 21 Norte 0 -- -- 30
2019-08-15 19:00:00 31.7 6 Noroeste 22 Noroeste 0 -- -- 29
2019-08-15 18:00:00 32.1 9 Noroeste 21 Noroeste 0 -- -- 28
2019-08-15 17:00:00 31.9 8 Norte 18 Oeste 0 -- -- 29
2019-08-15 16:00:00 30.8 7 Oeste 18 Noroeste 0 -- -- 32
2019-08-15 15:00:00 30.3 8 Nordeste 21 Nordeste 0 -- -- 32
2019-08-15 14:00:00 29.2 6 Norte 18 Norte 0 -- -- 33
2019-08-15 13:00:00 27.4 9 Nordeste 18 Nordeste 0 -- -- 36
2019-08-15 12:00:00 25.5 8 Norte 17 Nordeste 0 -- -- 46
2019-08-15 11:00:00 22.3 3 Noroeste 8 Norte 0 -- -- 54
2019-08-15 10:00:00 20.4 7 Nordeste 12 Este 0 -- -- 61
2019-08-15 09:00:00 18.2 3 Este 6 Norte 0 -- -- 66
2019-08-15 08:00:00 15.6 4 Norte 11 Noroeste 0 -- -- 73
2019-08-15 07:00:00 16.1 5 Noroeste 10 Norte 0 -- -- 71
2019-08-15 06:00:00 17.3 5 Norte 18 Noroeste 0 -- -- 66
2019-08-15 05:00:00 17.8 10 Noroeste 17 Noroeste 0 -- -- 67
2019-08-15 04:00:00 17.9 10 Sudoeste 13 Sudoeste 0 -- -- 64
2019-08-15 03:00:00 20 6 Noroeste 13 Noroeste 0 -- -- 60
2019-08-15 02:00:00 21 8 Noroeste 17 Noroeste 0 -- -- 53
2019-08-15 01:00:00 21.2 12 Oeste 21 Sudoeste 0 -- -- 45
2019-08-15 00:00:00 23.8 3 Sur -- -- 0 -- -- 37
2019-08-14 23:00:00 24.1 0 Calma -- -- 0 -- -- 36
2019-08-14 22:00:00 26.7 2 Norte 10 Noroeste 0 -- -- 33
2019-08-14 21:00:00 29.1 5 Noroeste 18 Noroeste 0 -- -- 30
2019-08-14 20:00:00 30.3 10 Noroeste 25 Noroeste 0 -- -- 27
2019-08-14 19:00:00 30.9 9 Noroeste 22 Noroeste 0 -- -- 25
2019-08-14 18:00:00 31.2 10 Noroeste 22 Oeste 0 -- -- 24
2019-08-14 17:00:00 30.7 10 Oeste 21 Noroeste 0 -- -- 24
2019-08-14 16:00:00 29.8 11 Oeste 22 Oeste 0 -- -- 24
2019-08-14 15:00:00 29.3 6 Noroeste 19 Oeste 0 -- -- 23
2019-08-14 14:00:00 27.9 11 Oeste 21 Sudoeste 0 -- -- 23
2019-08-14 13:00:00 26.9 8 Noroeste 17 Este 0 -- -- 24
2019-08-14 12:00:00 25.1 5 Noroeste 12 Norte 0 -- -- 27
2019-08-14 11:00:00 22.3 3 Noroeste 9 Noroeste 0 -- -- 29
2019-08-14 10:00:00 18.5 5 Sudeste 11 Sudeste 0 -- -- 34
2019-08-14 09:00:00 15 6 Sudeste 13 Sudeste 0 -- -- 42
2019-08-14 08:00:00 11.7 8 Sudeste 16 Sudeste 0 -- -- 46
2019-08-14 07:00:00 10.8 11 Sudeste 13 Sudeste 0 -- -- 48
2019-08-14 06:00:00 12 7 Sur 10 Sur 0 -- -- 46
2019-08-14 05:00:00 12.2 4 Sudeste 9 Sur 0 -- -- 49
2019-08-14 04:00:00 13.8 7 Sur 14 Sudeste 0 -- -- 41
2019-08-14 03:00:00 15.8 14 Sudeste 17 Sudeste 0 -- -- 37
2019-08-14 02:00:00 17 13 Sudeste 16 Sudeste 0 -- -- 35
2019-08-14 01:00:00 18.4 12 Sudeste 14 Sudeste 0 -- -- 33
2019-08-14 00:00:00 19.6 7 Este 10 Nordeste 0 -- -- 32
2019-08-13 23:00:00 20.7 4 Nordeste 14 Nordeste 0 -- -- 30
2019-08-13 22:00:00 22.2 9 Nordeste 17 Norte 0 -- -- 28
2019-08-13 21:00:00 24.7 12 Nordeste 19 Norte 0 -- -- 27
2019-08-13 20:00:00 26.6 5 Norte 17 Noroeste 0 -- -- 23
2019-08-13 19:00:00 26.5 9 Noroeste 21 Noroeste 0 -- -- 23
2019-08-13 18:00:00 27 10 Norte 24 Noroeste 0 -- -- 23
2019-08-13 17:00:00 26.7 11 Noroeste 24 Norte 0 -- -- 23
2019-08-13 16:00:00 26.4 9 Nordeste 17 Norte 0 -- -- 25
2019-08-13 15:00:00 25.3 4 Nordeste 18 Nordeste 0 -- -- 26
2019-08-13 14:00:00 24.3 6 Nordeste 18 Norte 0 -- -- 30
2019-08-13 13:00:00 22.8 6 Nordeste 15 Norte 0 -- -- 33
2019-08-13 12:00:00 20.8 6 Este 12 Nordeste 0 -- -- 40
2019-08-13 11:00:00 17.5 4 Noroeste 10 Este 0 -- -- 51
2019-08-13 10:00:00 15 6 Este 11 Este 0 -- -- 59
2019-08-13 09:00:00 11.7 0 Calma 7 Noroeste 0 -- -- 70
2019-08-13 08:00:00 9.2 3 Noroeste 6 Norte 0 -- -- 76
2019-08-13 07:00:00 10.2 3 Nordeste 6 Norte 0 -- -- 75
2019-08-13 06:00:00 11.1 2 Nordeste 10 Este 0 -- -- 72
2019-08-13 05:00:00 11.7 8 Nordeste 18 Nordeste 0 -- -- 71
2019-08-13 04:00:00 12.4 12 Nordeste 21 Nordeste 0 -- -- 68
2019-08-13 03:00:00 13.1 16 Nordeste 29 Nordeste 0 -- -- 65
2019-08-13 02:00:00 14.4 19 Nordeste 27 Nordeste 0 -- -- 61
2019-08-13 01:00:00 15.9 13 Nordeste 26 Nordeste 0 -- -- 55
2019-08-13 00:00:00 17.2 18 Nordeste 37 Nordeste 0 -- -- 50
2019-08-12 23:00:00 18.5 16 Nordeste 32 Este 0 -- -- 41
2019-08-12 22:00:00 19.6 19 Nordeste 35 Este 0 -- -- 37
2019-08-12 21:00:00 20.9 19 Este 31 Nordeste 0 -- -- 33
2019-08-12 20:00:00 22.3 14 Norte 25 Norte 0 -- -- 30
2019-08-12 19:00:00 23.7 10 Norte 26 Nordeste 0 -- -- 28
2019-08-12 18:00:00 24 11 Norte 26 Norte 0 -- -- 28
2019-08-12 17:00:00 23.5 13 Norte 26 Norte 0 -- -- 29
2019-08-12 16:00:00 22.7 7 Noroeste 28 Norte 0 -- -- 29
2019-08-12 15:00:00 21.9 10 Norte 25 Norte 0 -- -- 32
2019-08-12 14:00:00 20.8 9 Noroeste 24 Norte 0 -- -- 37
2019-08-12 13:00:00 19.6 10 Nordeste 21 Norte 0 -- -- 41
2019-08-12 12:00:00 18.3 9 Norte 21 Norte 0 -- -- 47
2019-08-12 11:00:00 16.5 11 Norte 19 Norte 0 -- -- 53
2019-08-12 10:00:00 14 4 Norte 8 Norte 0 -- -- 67
2019-08-12 09:00:00 11.3 5 Noroeste 9 Noroeste 0 -- -- 79
2019-08-12 08:00:00 9.3 3 Noroeste 8 Noroeste 0 -- -- 83
2019-08-12 07:00:00 9.1 3 Noroeste 6 Noroeste 0 -- -- 84
2019-08-12 06:00:00 10.2 3 Noroeste 7 Norte 0 -- -- 80
2019-08-12 05:00:00 10.9 4 Norte 11 Noroeste 0 -- -- 78
2019-08-12 04:00:00 11.5 7 Norte 10 Norte 0 -- -- 75
2019-08-12 03:00:00 12.2 6 Norte 12 Norte 0 -- -- 72
2019-08-12 02:00:00 13.1 9 Norte 23 Norte 0 -- -- 68
2019-08-12 01:00:00 14.3 11 Noroeste 21 Noroeste 0 -- -- 62
2019-08-12 00:00:00 15.4 12 Noroeste 24 Noroeste 0 -- -- 51
2019-08-11 23:00:00 17 15 Noroeste 37 Noroeste 0 -- -- 50
2019-08-11 22:00:00 19.2 9 Oeste 25 Noroeste 0 -- -- 36
2019-08-11 21:00:00 21.5 14 Oeste 25 Oeste 0 -- -- 32
2019-08-11 20:00:00 22.9 12 Oeste 35 Oeste 0 -- -- 29
2019-08-11 19:00:00 23.4 15 Oeste 31 Noroeste 0 -- -- 29
2019-08-11 18:00:00 23.8 13 Oeste 32 Oeste 0 -- -- 32
2019-08-11 17:00:00 23.7 12 Oeste 32 Oeste 0 -- -- 36
2019-08-11 16:00:00 22.5 13 Oeste 28 Noroeste 0 -- -- 42
2019-08-11 15:00:00 21.9 11 Oeste 25 Oeste 0 -- -- 46
2019-08-11 14:00:00 21.3 14 Oeste 26 Noroeste 0 -- -- 53
2019-08-11 13:00:00 19.8 14 Noroeste 25 Noroeste 0 -- -- 60
2019-08-11 12:00:00 19.8 14 Oeste 24 Oeste 0 -- -- 63
2019-08-11 11:00:00 19 10 Oeste 19 Oeste 0 -- -- 64
2019-08-11 10:00:00 18.5 3 Sudoeste 7 Sudoeste 0 -- -- 65
2019-08-11 09:00:00 16.7 4 Sudeste 10 Sudeste 0 -- -- 75
2019-08-11 08:00:00 14.4 8 Sudeste 15 Sudeste 0 -- -- 84
2019-08-11 07:00:00 14.6 6 Este 11 Norte 0 -- -- 82
2019-08-11 06:00:00 15.3 5 Norte 13 Norte 0 -- -- 81
2019-08-11 05:00:00 15.9 9 Nordeste 27 Noroeste 0.2 -- -- 77
2019-08-11 04:00:00 17.3 15 Noroeste 29 Noroeste 0 -- -- 72
2019-08-11 03:00:00 18.4 8 Oeste 13 Oeste 0 -- -- 62
2019-08-11 02:00:00 20 6 Noroeste 15 Noroeste 0 -- -- 45
2019-08-11 01:00:00 20.8 6 Noroeste 19 Noroeste 0 -- -- 40
2019-08-11 00:00:00 21.7 11 Noroeste 21 Noroeste 0 -- -- 37
2019-08-10 23:00:00 22.7 6 Noroeste 16 Noroeste 0 -- -- 36
2019-08-10 22:00:00 23.6 8 Noroeste 17 Noroeste 0 -- -- 35
2019-08-10 21:00:00 24.7 5 Oeste 23 Oeste 0 -- -- 35
2019-08-10 20:00:00 26.3 12 Noroeste 24 Oeste 0 -- -- 31
2019-08-10 19:00:00 27.9 9 Noroeste 23 Norte 0 -- -- 29
2019-08-10 18:00:00 27.8 10 Oeste 25 Oeste 0 -- -- 28
2019-08-10 17:00:00 27.3 9 Oeste 23 Sudoeste 0 -- -- 29
2019-08-10 16:00:00 26.6 8 Sudoeste 17 Oeste 0 -- -- 27
2019-08-10 15:00:00 25.3 5 Noroeste 12 Sudoeste 0 -- -- 40
2019-08-10 14:00:00 23.2 6 Noroeste 11 Noroeste 0 -- -- 47
2019-08-10 13:00:00 21.7 4 Oeste 11 Sur 0 -- -- 52
2019-08-10 12:00:00 20.2 4 Norte 12 Oeste 0 -- -- 56
2019-08-10 11:00:00 18.2 5 Oeste 10 Sudoeste 0 -- -- 68
2019-08-10 10:00:00 16.1 5 Oeste 12 Oeste 0 -- -- 78
2019-08-10 09:00:00 13.4 4 Sudoeste 13 Sudoeste 0.2 -- -- 89
2019-08-10 08:00:00 12 10 Sudoeste 16 Sur 0 -- -- 92
2019-08-10 07:00:00 11.5 12 Sur 14 Sur 0 -- -- 91
2019-08-10 06:00:00 11.1 12 Sur 14 Sudoeste 0 -- -- 92
2019-08-10 05:00:00 11.8 12 Sudoeste 13 Sudoeste 0 -- -- 93
2019-08-10 04:00:00 12.7 10 Sudoeste 12 Sudoeste 0 -- -- 92
2019-08-10 03:00:00 14.5 5 Oeste 14 Noroeste 0 -- -- 87
2019-08-10 02:00:00 14.7 7 Oeste 10 Sudoeste 0 -- -- 93
2019-08-10 01:00:00 14.6 8 Sudoeste 9 Sudoeste 0 -- -- 93
2019-08-10 00:00:00 15.8 8 Sudoeste 11 Sudoeste 0 -- -- 90
2019-08-09 23:00:00 16.2 8 Sudeste 11 Sudeste 0 -- -- 91
2019-08-09 22:00:00 16.6 8 Sudeste 18 Sudoeste 0 -- -- 90
2019-08-09 21:00:00 18.2 18 Sudoeste 30 Sudoeste 0 -- -- 83
2019-08-09 20:00:00 17.4 22 Sudoeste 31 Sudoeste 0.2 -- -- 86
2019-08-09 19:00:00 16.5 25 Sudoeste 42 Sudoeste 0.6 -- -- 87
2019-08-09 18:00:00 20.7 30 Sudoeste 50 Sudoeste 0.2 -- -- 75
2019-08-09 17:00:00 24 26 Oeste 46 Oeste 0 -- -- 61
2019-08-09 16:00:00 24.7 28 Oeste 48 Oeste 0 -- -- 60
2019-08-09 15:00:00 20.9 21 Oeste 39 Oeste 0.2 -- -- 83
2019-08-09 14:00:00 22.3 18 Oeste 32 Sudoeste 0 -- -- 71
2019-08-09 13:00:00 22.9 15 Noroeste 32 Oeste 0 -- -- 68
2019-08-09 12:00:00 24 15 Oeste 49 Sudoeste 0 -- -- 66
2019-08-09 11:00:00 23.9 30 Sudoeste 47 Sudoeste 0 -- -- 65
2019-08-09 10:00:00 23 34 Sudoeste 50 Sudoeste 0 -- -- 68
2019-08-09 09:00:00 21 32 Sudoeste 42 Sudoeste 0 -- -- 75
2019-08-09 08:00:00 19.5 19 Sudoeste 30 Sudoeste 0 -- -- 75
2019-08-09 07:00:00 19.8 17 Sudoeste 35 Sudoeste 0 -- -- 73
2019-08-09 06:00:00 20.4 24 Sudoeste 33 Sudoeste 0 -- -- 69
2019-08-09 05:00:00 19.6 15 Sudoeste 23 Sudoeste 0 -- -- 74
2019-08-09 04:00:00 20.2 17 Sudoeste 24 Sudoeste 0 -- -- 70
2019-08-09 03:00:00 20.4 14 Sudoeste 18 Sudoeste 0 -- -- 69
2019-08-09 02:00:00 21.2 8 Sudoeste 18 Sudoeste 0 -- -- 64
2019-08-09 01:00:00 22.5 11 Sudoeste 15 Sudoeste 0 -- -- 58
2019-08-09 00:00:00 24 12 Oeste 24 Oeste 0 -- -- 54
2019-08-08 23:00:00 25.8 20 Oeste 33 Sudoeste 0 -- -- 48
2019-08-08 22:00:00 26.8 22 Sudoeste 38 Oeste 0 -- -- 45
2019-08-08 21:00:00 28.4 21 Sudoeste 42 Sudoeste 0 -- -- 39
2019-08-08 20:00:00 29.8 24 Oeste 47 Oeste 0 -- -- 37
2019-08-08 19:00:00 30.9 26 Oeste 50 Sudoeste 0 -- -- 34
2019-08-08 18:00:00 31.9 31 Sudoeste 54 Sudoeste 0 -- -- 31
2019-08-08 17:00:00 31.8 28 Oeste 50 Oeste 0 -- -- 31
2019-08-08 16:00:00 31.5 26 Sudoeste 46 Sudoeste 0 -- -- 34
2019-08-08 15:00:00 30.2 23 Sudoeste 38 Sudoeste 0 -- -- 40
2019-08-08 14:00:00 29.4 18 Oeste 41 Sudoeste 0 -- -- 43
2019-08-08 13:00:00 28 18 Sudoeste 37 Sudoeste 0 -- -- 46
2019-08-08 12:00:00 26.4 18 Sudoeste 32 Sudoeste 0 -- -- 50
2019-08-08 11:00:00 24.8 18 Sudoeste 29 Sudoeste 0 -- -- 53
2019-08-08 10:00:00 22.7 16 Sudoeste 24 Sudoeste 0 -- -- 59
2019-08-08 09:00:00 20.6 15 Sur 22 Sur 0 -- -- 62
2019-08-08 08:00:00 19.1 13 Sur 16 Sur 0 -- -- 64
2019-08-08 07:00:00 18.6 10 Sudoeste 12 Sudoeste 0 -- -- 69
2019-08-08 06:00:00 19.9 12 Sudoeste 19 Oeste 0 -- -- 64
2019-08-08 05:00:00 19.7 13 Sudoeste 18 Sudoeste 0 -- -- 64
2019-08-08 04:00:00 19.5 10 Sudoeste 16 Sudoeste 0 -- -- 65
2019-08-08 03:00:00 19.2 11 Sudoeste 15 Sudoeste 0 -- -- 65
2019-08-08 02:00:00 18.9 10 Sudoeste 18 Sudoeste 0 -- -- 64
2019-08-08 01:00:00 18.8 9 Sudoeste 11 Sudoeste 0 -- -- 67
2019-08-08 00:00:00 20 2 Sudoeste 10 Norte 0 -- -- 63
2019-08-07 23:00:00 21.3 5 Norte 12 Noroeste 0 -- -- 61
2019-08-07 22:00:00 22.4 7 Noroeste 19 Oeste 0 -- -- 55
2019-08-07 21:00:00 24.3 15 Oeste 24 Sudoeste 0 -- -- 46
2019-08-07 20:00:00 24.9 19 Sudoeste 36 Sudoeste 0 -- -- 44
2019-08-07 19:00:00 25.5 14 Oeste 30 Sudoeste 0 -- -- 44
2019-08-07 18:00:00 25.7 25 Sudoeste 37 Sudoeste 0 -- -- 40
2019-08-07 17:00:00 26.7 24 Sudoeste 37 Sudoeste 0 -- -- 39
2019-08-07 16:00:00 27 18 Sudoeste 33 Sur 0 -- -- 38
2019-08-07 15:00:00 27 21 Sudoeste 38 Sudoeste 0 -- -- 40
2019-08-07 14:00:00 26.6 15 Oeste 27 Sudoeste 0 -- -- 40
2019-08-07 13:00:00 25.6 13 Sudoeste 19 Sudoeste 0 -- -- 42
2019-08-07 12:00:00 24.9 5 Sudoeste 14 Oeste 0 -- -- 46
2019-08-07 11:00:00 23.2 6 Noroeste 14 Noroeste 0 -- -- 50
2019-08-07 10:00:00 21.6 7 Oeste 13 Oeste 0 -- -- 59
2019-08-07 09:00:00 19.9 7 Sudoeste 10 Sudoeste 0 -- -- 66
2019-08-07 08:00:00 18.4 4 Oeste 8 Oeste 0 -- -- 71
2019-08-07 07:00:00 18.6 4 Oeste 9 Noroeste 0 -- -- 71
2019-08-07 06:00:00 19 3 Oeste 8 Sudoeste 0 -- -- 67
2019-08-07 05:00:00 20.1 6 Sudoeste 8 Sur 0 -- -- 66
2019-08-07 04:00:00 21.4 3 Nordeste 11 Norte 0 -- -- 64
2019-08-07 03:00:00 21.9 9 Norte 14 Noroeste 0 -- -- 59
2019-08-07 02:00:00 22.9 7 Noroeste 18 Oeste 0 -- -- 53
2019-08-07 01:00:00 23.8 6 Nordeste 14 Nordeste 0 -- -- 48
2019-08-07 00:00:00 24.2 8 Noroeste 16 Noroeste 0 -- -- 42
2019-08-06 23:00:00 25.1 12 Noroeste 38 Noroeste 0 -- -- 39
2019-08-06 22:00:00 26.6 17 Noroeste 31 Noroeste 0 -- -- 37
2019-08-06 21:00:00 28.7 14 Noroeste 25 Noroeste 0 -- -- 31
2019-08-06 20:00:00 30.1 13 Noroeste 26 Noroeste 0 -- -- 34
2019-08-06 19:00:00 31.3 10 Noroeste 28 Noroeste 0 -- -- 30
2019-08-06 18:00:00 31.8 10 Noroeste 29 Noroeste 0 -- -- 31
2019-08-06 17:00:00 31.9 12 Oeste 25 Oeste 0 -- -- 29
2019-08-06 16:00:00 31.3 14 Noroeste 26 Noroeste 0 -- -- 29
2019-08-06 15:00:00 31.4 6 Oeste 26 Oeste 0 -- -- 31
2019-08-06 14:00:00 30 9 Sudoeste 27 Sudoeste 0 -- -- 35
2019-08-06 13:00:00 28.2 5 Noroeste 11 Oeste 0 -- -- 42
2019-08-06 12:00:00 26.1 5 Sudoeste 12 Oeste 0 -- -- 47
2019-08-06 11:00:00 23.4 6 Oeste 10 Oeste 0 -- -- 54
2019-08-06 10:00:00 21.7 7 Sudoeste 13 Sudoeste 0 -- -- 58
2019-08-06 09:00:00 18.9 11 Sudoeste 17 Sudoeste 0 -- -- 62
2019-08-06 08:00:00 16.7 12 Sudoeste 17 Sudoeste 0 -- -- 67
2019-08-06 07:00:00 16.4 11 Sudoeste 15 Sudoeste 0 -- -- 64
2019-08-06 06:00:00 17.4 12 Sudoeste 22 Sudoeste 0 -- -- 59
2019-08-06 05:00:00 17.6 18 Sudoeste 21 Sudoeste 0 -- -- 56
2019-08-06 04:00:00 18.8 15 Sudoeste 19 Sudoeste 0 -- -- 50
2019-08-06 03:00:00 19.2 12 Sudoeste 14 Sudoeste 0 -- -- 48
2019-08-06 02:00:00 22.5 3 Oeste 17 Noroeste 0 -- -- 42
2019-08-06 01:00:00 23.8 9 Oeste 18 Oeste 0 -- -- 39
2019-08-06 00:00:00 24.6 7 Oeste 15 Noroeste 0 -- -- 38
2019-08-05 23:00:00 26.1 8 Noroeste 16 Noroeste 0 -- -- 35
2019-08-05 22:00:00 28.1 10 Noroeste 17 Norte 0 -- -- 35
2019-08-05 21:00:00 30.9 11 Noroeste 22 Noroeste 0 -- -- 29
2019-08-05 20:00:00 32.3 12 Oeste 27 Oeste 0 -- -- 24
2019-08-05 19:00:00 33.3 18 Sudoeste 29 Sudoeste 0 -- -- 19
2019-08-05 18:00:00 33.5 12 Oeste 27 Sudoeste 0 -- -- 22
2019-08-05 17:00:00 33.1 13 Oeste 30 Sudoeste 0 -- -- 22
2019-08-05 16:00:00 32.2 15 Oeste 31 Oeste 0 -- -- 22
2019-08-05 15:00:00 32 16 Oeste 26 Sudoeste 0 -- -- 21
2019-08-05 14:00:00 30.8 11 Oeste 22 Oeste 0 -- -- 26
2019-08-05 13:00:00 28.8 6 Nordeste 12 Nordeste 0 -- -- 40
2019-08-05 12:00:00 25.7 5 Oeste 9 Noroeste 0 -- -- 48
2019-08-05 11:00:00 23 4 Oeste 10 Noroeste 0 -- -- 57
2019-08-05 10:00:00 20.4 4 Sudoeste 8 Sudoeste 0 -- -- 64
2019-08-05 09:00:00 17.8 2 Sudoeste 6 Sudoeste 0 -- -- 71
2019-08-05 08:00:00 14.9 5 Sudoeste 10 Sudoeste 0 -- -- 68
2019-08-05 07:00:00 14.5 8 Sudoeste 9 Sudoeste 0 -- -- 64
2019-08-05 06:00:00 16 6 Oeste 11 Oeste 0 -- -- 61
2019-08-05 05:00:00 17.4 7 Oeste 12 Oeste 0 -- -- 61
2019-08-05 04:00:00 17.8 8 Sudoeste 13 Sudoeste 0 -- -- 50
2019-08-05 03:00:00 19.1 8 Sudoeste 12 Sudoeste 0 -- -- 47
2019-08-05 02:00:00 22.1 8 Oeste 14 Noroeste 0 -- -- 40
2019-08-05 01:00:00 23.8 7 Oeste 11 Noroeste 0 -- -- 36
2019-08-05 00:00:00 24.7 8 Noroeste 16 Noroeste 0 -- -- 34
2019-08-04 23:00:00 26.5 8 Noroeste 16 Noroeste 0 -- -- 31
2019-08-04 22:00:00 28.1 13 Noroeste 28 Noroeste 0 -- -- 29
2019-08-04 21:00:00 31.2 12 Noroeste 24 Oeste 0 -- -- 28
2019-08-04 20:00:00 32.5 14 Noroeste 31 Oeste 0 -- -- 24
2019-08-04 19:00:00 33.2 11 Oeste 30 Sudoeste 0 -- -- 22
2019-08-04 18:00:00 33.4 9 Oeste 26 Sudoeste 0 -- -- 23
2019-08-04 17:00:00 33.2 9 Oeste 26 Oeste 0 -- -- 26
2019-08-04 16:00:00 32.4 12 Oeste 34 Oeste 0 -- -- 26
2019-08-04 15:00:00 31.6 12 Sudoeste 23 Sur 0 -- -- 28
2019-08-04 14:00:00 30.3 6 Oeste 14 Sudoeste 0 -- -- 34
2019-08-04 13:00:00 28.7 5 Norte 13 Oeste 0 -- -- 40
2019-08-04 12:00:00 26.3 8 Sudoeste 14 Sudoeste 0 -- -- 47
2019-08-04 11:00:00 23.7 4 Oeste 13 Oeste 0 -- -- 54
2019-08-04 10:00:00 21.2 8 Oeste 15 Sudoeste 0 -- -- 60
2019-08-04 09:00:00 19.2 9 Oeste 14 Sudoeste 0 -- -- 65
2019-08-04 08:00:00 17.8 9 Sudoeste 22 Sudoeste 0 -- -- 69
2019-08-04 07:00:00 17.2 15 Sudoeste 20 Sudoeste 0 -- -- 69
2019-08-04 06:00:00 16.8 14 Sudoeste 17 Sudoeste 0 -- -- 66
2019-08-04 05:00:00 17.5 13 Sudoeste 19 Sudoeste 0 -- -- 59
2019-08-04 04:00:00 18.9 12 Sudoeste 22 Sudoeste 0 -- -- 51
2019-08-04 03:00:00 19.1 12 Sudoeste 16 Sudoeste 0 -- -- 48
2019-08-04 02:00:00 21.6 10 Sudoeste 15 Oeste 0 -- -- 41
2019-08-04 01:00:00 24.3 12 Noroeste 17 Noroeste 0 -- -- 37
2019-08-04 00:00:00 24.9 7 Oeste 18 Oeste 0 -- -- 34
2019-08-03 23:00:00 27.4 11 Noroeste 19 Oeste 0 -- -- 29
2019-08-03 22:00:00 28.8 8 Noroeste 14 Noroeste 0 -- -- 27
2019-08-03 21:00:00 31.9 8 Noroeste 19 Noroeste 0 -- -- 21
2019-08-03 20:00:00 33.3 8 Oeste 22 Oeste 0 -- -- 17
2019-08-03 19:00:00 33.9 12 Oeste 32 Sudoeste 0 -- -- 20
2019-08-03 18:00:00 34.3 13 Sudoeste 31 Sudoeste 0 -- -- 18
2019-08-03 17:00:00 34.2 14 Oeste 29 Oeste 0 -- -- 18
2019-08-03 16:00:00 33.7 11 Oeste 32 Sudoeste 0 -- -- 18
2019-08-03 15:00:00 32.8 9 Oeste 24 Sudoeste 0 -- -- 20
2019-08-03 14:00:00 31.6 12 Oeste 24 Oeste 0 -- -- 20
2019-08-03 13:00:00 29.7 11 Oeste 26 Oeste 0 -- -- 29
2019-08-03 12:00:00 26.8 8 Oeste 14 Sudoeste 0 -- -- 37
2019-08-03 11:00:00 24.1 6 Oeste 11 Sudoeste 0 -- -- 42
2019-08-03 10:00:00 21.2 6 Sudoeste 11 Sudoeste 0 -- -- 44
2019-08-03 09:00:00 18.3 6 Sudoeste 13 Sur 0 -- -- 49
2019-08-03 08:00:00 15.6 10 Sur 14 Sur 0 -- -- 50
2019-08-03 07:00:00 15.1 10 Sur 13 Sur 0 -- -- 50
2019-08-03 06:00:00 17.8 4 Sur 9 Este 0 -- -- 57
2019-08-03 05:00:00 18.6 0 Calma 10 Este 0 -- -- 53
2019-08-03 04:00:00 20.6 9 Este 14 Nordeste 0 -- -- 50
2019-08-03 03:00:00 21.9 10 Este 14 Nordeste 0 -- -- 48
2019-08-03 02:00:00 21.5 6 Norte 8 Norte 0 -- -- 40
2019-08-03 01:00:00 23.5 8 Norte 13 Nordeste 0 -- -- 35
2019-08-03 00:00:00 25.3 8 Norte 14 Nordeste 0 -- -- 32
2019-08-02 23:00:00 26.7 7 Norte 13 Noroeste 0 -- -- 28
2019-08-02 22:00:00 28.1 6 Noroeste 15 Noroeste 0 -- -- 26
2019-08-02 21:00:00 31.1 9 Noroeste 22 Noroeste 0 -- -- 22
2019-08-02 20:00:00 32.5 10 Norte 25 Noroeste 0 -- -- 21
2019-08-02 19:00:00 33.6 8 Noroeste 21 Sudoeste 0 -- -- 21
2019-08-02 18:00:00 33.5 12 Oeste 20 Oeste 0 -- -- 19
2019-08-02 17:00:00 33.7 6 Noroeste 18 Oeste 0 -- -- 20
2019-08-02 16:00:00 32.3 6 Noroeste 19 Noroeste 0 -- -- 23
2019-08-02 15:00:00 31.5 9 Norte 16 Este 0 -- -- 28
2019-08-02 14:00:00 30 7 Norte 15 Oeste 0 -- -- 35
2019-08-02 13:00:00 27.8 7 Norte 14 Norte 0 -- -- 44
2019-08-02 12:00:00 24.9 4 Norte 12 Nordeste 0 -- -- 54
2019-08-02 11:00:00 22.4 5 Este 12 Este 0 -- -- 61
2019-08-02 10:00:00 19.6 5 Nordeste 10 Nordeste 0 -- -- 71
2019-08-02 09:00:00 17.4 3 Nordeste 6 Este 0 -- -- 79
2019-08-02 08:00:00 14 3 Sudeste 7 Sudeste 0 -- -- 83
2019-08-02 07:00:00 13.8 4 Sudoeste 5 Sudoeste 0 -- -- 87
2019-08-02 06:00:00 14.7 2 Norte 9 Norte 0 -- -- 88
2019-08-02 05:00:00 15.5 5 Norte 9 Norte 0 -- -- 86
2019-08-02 04:00:00 16.8 5 Norte 18 Nordeste 0 -- -- 80
2019-08-02 03:00:00 18.2 11 Nordeste 17 Nordeste 0 -- -- 75
2019-08-02 02:00:00 19.9 9 Nordeste 18 Nordeste 0 -- -- 69
2019-08-02 01:00:00 20.7 9 Nordeste 20 Este 0 -- -- 66
2019-08-02 00:00:00 21.9 14 Este 21 Este 0 -- -- 55
2019-08-01 23:00:00 24.7 2 Nordeste 8 Norte 0 -- -- 32
2019-08-01 22:00:00 26.2 5 Norte 19 Norte 0 -- -- 30
2019-08-01 21:00:00 28.9 11 Norte 19 Norte 0 -- -- 27
2019-08-01 20:00:00 29.5 10 Norte 26 Noroeste 0 -- -- 26
2019-08-01 19:00:00 30.8 11 Noroeste 24 Norte 0 -- -- 25
2019-08-01 18:00:00 30.6 13 Oeste 30 Oeste 0 -- -- 26
2019-08-01 17:00:00 30.7 9 Sudoeste 27 Oeste 0 -- -- 26
2019-08-01 16:00:00 29.9 12 Noroeste 26 Oeste 0 -- -- 27
2019-08-01 15:00:00 29.1 8 Noroeste 23 Norte 0 -- -- 31
2019-08-01 14:00:00 27.9 8 Oeste 17 Noroeste 0 -- -- 36
2019-08-01 13:00:00 25.8 5 Oeste 19 Oeste 0 -- -- 44
2019-08-01 12:00:00 23.2 8 Noroeste 20 Oeste 0 -- -- 52
2019-08-01 11:00:00 20.5 11 Oeste 19 Oeste 0 -- -- 58
2019-08-01 10:00:00 18 8 Oeste 15 Sudoeste 0 -- -- 67
2019-08-01 09:00:00 16.1 8 Oeste 14 Oeste 0 -- -- 75
2019-08-01 08:00:00 14.5 4 Sudoeste 9 Noroeste 0 -- -- 78
2019-08-01 07:00:00 15.1 7 Noroeste 13 Noroeste 0 -- -- 78
2019-08-01 06:00:00 16.7 5 Noroeste 11 Norte 0 -- -- 70
2019-08-01 05:00:00 17.8 6 Noroeste 12 Norte 0 -- -- 63
2019-08-01 04:00:00 18.6 6 Noroeste 11 Noroeste 0 -- -- 59
2019-08-01 03:00:00 19.2 5 Oeste 12 Este 0 -- -- 54
2019-08-01 02:00:00 20.6 4 Nordeste 9 Norte 0 -- -- 50
2019-08-01 01:00:00 21.1 3 Oeste 13 Norte 0 -- -- 48
2019-08-01 00:00:00 21.9 9 Norte 17 Nordeste 0 -- -- 46
2019-07-31 23:00:00 23.1 12 Norte 24 Nordeste 0 -- -- 43
2019-07-31 22:00:00 24.8 12 Nordeste 28 Norte 0 -- -- 39
2019-07-31 21:00:00 26.8 15 Nordeste 27 Nordeste 0 -- -- 35
2019-07-31 20:00:00 28.1 17 Norte 34 Norte 0 -- -- 32
2019-07-31 19:00:00 29.5 18 Noroeste 31 Norte 0 -- -- 30
2019-07-31 18:00:00 31.6 10 Norte 20 Nordeste 0 -- -- 29
2019-07-31 17:00:00 31.4 9 Norte 21 Norte 0 -- -- 30
2019-07-31 16:00:00 30.5 5 Noroeste 17 Norte 0 -- -- 32
2019-07-31 15:00:00 28.3 6 Oeste 18 Norte 0 -- -- 35
2019-07-31 14:00:00 26.8 9 Norte 19 Nordeste 0 -- -- 37
2019-07-31 13:00:00 24.3 9 Nordeste 20 Norte 0 -- -- 40
2019-07-31 12:00:00 21.4 9 Norte 18 Norte 0 -- -- 47
2019-07-31 11:00:00 18.7 10 Norte 15 Norte 0 -- -- 53
2019-07-31 10:00:00 15.4 11 Nordeste 16 Norte 0 -- -- 63
2019-07-31 09:00:00 12.7 5 Norte 13 Nordeste 0 -- -- 73
2019-07-31 08:00:00 11.5 6 Este 12 Este 0 -- -- 76
2019-07-31 07:00:00 10.6 3 Norte 8 Norte 0 -- -- 79
2019-07-31 06:00:00 12 3 Norte 8 Nordeste 0 -- -- 73
2019-07-31 05:00:00 12.4 7 Norte 11 Norte 0 -- -- 72
2019-07-31 04:00:00 13.1 6 Norte 10 Norte 0 -- -- 68
2019-07-31 03:00:00 15 5 Nordeste 14 Nordeste 0 -- -- 61
2019-07-31 02:00:00 15.8 8 Nordeste 14 Nordeste 0 -- -- 59
2019-07-31 01:00:00 16.7 9 Nordeste 15 Nordeste 0 -- -- 54
2019-07-31 00:00:00 18.3 9 Nordeste 24 Nordeste 0 -- -- 46
2019-07-30 23:00:00 20.2 10 Nordeste 21 Nordeste 0 -- -- 35
2019-07-30 22:00:00 21.9 11 Nordeste 23 Norte 0 -- -- 32
2019-07-30 21:00:00 24.1 16 Norte 28 Norte 0 -- -- 29
2019-07-30 20:00:00 24.7 17 Norte 25 Nordeste 0 -- -- 30
2019-07-30 19:00:00 25.9 11 Norte 25 Norte 0 -- -- 30
2019-07-30 18:00:00 26.3 9 Noroeste 23 Noroeste 0 -- -- 29
2019-07-30 17:00:00 25.7 9 Noroeste 22 Norte 0 -- -- 31
2019-07-30 16:00:00 24.7 11 Norte 20 Norte 0 -- -- 32
2019-07-30 15:00:00 23.2 7 Noroeste 17 Norte 0 -- -- 31
2019-07-30 14:00:00 22.3 8 Norte 18 Norte 0 -- -- 34
2019-07-30 13:00:00 20 8 Oeste 16 Noroeste 0 -- -- 37
2019-07-30 12:00:00 18.9 4 Norte 9 Este 0 -- -- 48
2019-07-30 11:00:00 16.9 3 Sudeste 10 Nordeste 0 -- -- 55
2019-07-30 10:00:00 14.3 5 Noroeste 12 Sudoeste 0 -- -- 59
2019-07-30 09:00:00 11.8 8 Sudoeste 12 Sudoeste 0 -- -- 69
2019-07-30 08:00:00 9.6 8 Sudoeste 11 Sudoeste 0 -- -- 76
2019-07-30 07:00:00 10.2 6 Oeste 14 Oeste 0 -- -- 73
2019-07-30 06:00:00 11.1 9 Noroeste 16 Noroeste 0 -- -- 70
2019-07-30 05:00:00 11.8 6 Oeste 13 Noroeste 0 -- -- 69
2019-07-30 04:00:00 12.8 6 Oeste 16 Noroeste 0 -- -- 66
2019-07-30 03:00:00 14.1 9 Noroeste 18 Noroeste 0 -- -- 59
2019-07-30 02:00:00 15.3 6 Noroeste 19 Noroeste 0 -- -- 53
2019-07-30 01:00:00 16.4 13 Noroeste 22 Noroeste 0 -- -- 48
2019-07-30 00:00:00 17.9 10 Noroeste 22 Noroeste 0 -- -- 42
2019-07-29 23:00:00 19.5 13 Noroeste 27 Noroeste 0 -- -- 38
2019-07-29 22:00:00 21.1 15 Noroeste 26 Noroeste 0 -- -- 36
2019-07-29 21:00:00 23.5 17 Noroeste 35 Noroeste 0 -- -- 31
2019-07-29 20:00:00 25.2 17 Noroeste 36 Noroeste 0 -- -- 30
2019-07-29 19:00:00 26.3 17 Oeste 37 Noroeste 0 -- -- 28
2019-07-29 18:00:00 26.9 15 Oeste 35 Oeste 0 -- -- 26
2019-07-29 17:00:00 26.8 17 Oeste 37 Oeste 0 -- -- 27
2019-07-29 16:00:00 26.2 18 Oeste 39 Sudoeste 0 -- -- 34
2019-07-29 15:00:00 25.6 14 Oeste 33 Oeste 0 -- -- 39
2019-07-29 14:00:00 24.3 18 Oeste 32 Sudoeste 0 -- -- 45
2019-07-29 13:00:00 23.1 13 Oeste 24 Sudoeste 0 -- -- 48
2019-07-29 12:00:00 21.6 11 Oeste 24 Oeste 0 -- -- 52
2019-07-29 11:00:00 19.7 12 Oeste 23 Oeste 0 -- -- 55
2019-07-29 10:00:00 18.1 12 Oeste 24 Oeste 0 -- -- 51
2019-07-29 09:00:00 16.3 17 Sudoeste 24 Oeste 0 -- -- 59
2019-07-29 08:00:00 14 13 Sudoeste 18 Sudoeste 0 -- -- 73
2019-07-29 07:00:00 13.4 14 Sudoeste 19 Sudoeste 0 -- -- 71
2019-07-29 06:00:00 14 13 Sudoeste 18 Sudoeste 0 -- -- 59
2019-07-29 05:00:00 14.9 11 Sudoeste 16 Sudoeste 0 -- -- 52
2019-07-29 04:00:00 16 10 Oeste 19 Sudoeste 0 -- -- 45
2019-07-29 03:00:00 15.5 10 Sudoeste 13 Sudoeste 0 -- -- 46
2019-07-29 02:00:00 17.6 9 Sudoeste 14 Sur 0 -- -- 39
2019-07-29 01:00:00 18.9 7 Sur 11 Sudeste 0 -- -- 40
2019-07-29 00:00:00 20.3 10 Sudeste 11 Sudeste 0 -- -- 36
2019-07-28 23:00:00 22.4 4 Nordeste 6 Nordeste 0 -- -- 32
2019-07-28 22:00:00 23.9 6 Nordeste 9 Nordeste 0 -- -- 29
2019-07-28 21:00:00 26.7 3 Noroeste 12 Nordeste 0 -- -- 26
2019-07-28 20:00:00 27.4 5 Oeste 16 Oeste 0 -- -- 23
2019-07-28 19:00:00 27.6 5 Oeste 18 Oeste 0 -- -- 23
2019-07-28 18:00:00 27.4 9 Noroeste 26 Oeste 0 -- -- 23
2019-07-28 17:00:00 27.1 8 Noroeste 24 Oeste 0 -- -- 28
2019-07-28 16:00:00 26.6 6 Norte 22 Noroeste 0 -- -- 30
2019-07-28 15:00:00 25.1 8 Norte 21 Nordeste 0 -- -- 34
2019-07-28 14:00:00 23.7 6 Noroeste 15 Sudoeste 0 -- -- 37
2019-07-28 13:00:00 22.5 7 Este 17 Nordeste 0 -- -- 42
2019-07-28 12:00:00 20.7 9 Nordeste 18 Nordeste 0 -- -- 46
2019-07-28 11:00:00 18.4 12 Nordeste 23 Este 0 -- -- 57
2019-07-28 10:00:00 15.5 13 Este 20 Nordeste 0 -- -- 68
2019-07-28 09:00:00 13.5 7 Este 10 Este 0 -- -- 77
2019-07-28 08:00:00 11.1 3 Norte 7 Sur 0 -- -- 85
2019-07-28 07:00:00 10.1 6 Sur 8 Sudeste 0 -- -- 85
2019-07-28 06:00:00 11 3 Nordeste 10 Nordeste 0 -- -- 84
2019-07-28 05:00:00 12 6 Norte 13 Nordeste 0 -- -- 81
2019-07-28 04:00:00 12.3 8 Nordeste 14 Nordeste 0 -- -- 79
2019-07-28 03:00:00 13 9 Nordeste 14 Nordeste 0 -- -- 76
2019-07-28 02:00:00 13.6 10 Nordeste 18 Este 0 -- -- 74
2019-07-28 01:00:00 14.3 13 Este 23 Nordeste 0 -- -- 71
2019-07-28 00:00:00 15.2 17 Nordeste 32 Nordeste 0 -- -- 69
2019-07-27 23:00:00 16.5 17 Nordeste 30 Nordeste 0 -- -- 66
2019-07-26 12:00:00 -- -- -- -- -- -- -- -- --
2019-07-26 11:00:00 20.2 10 Oeste 17 Oeste 0 -- -- 49
2019-07-26 10:00:00 18.2 8 Noroeste 21 Noroeste 0 -- -- 66
2019-07-26 09:00:00 17.9 6 Noroeste 23 Noroeste 0 -- -- 71
2019-07-26 08:00:00 17.2 9 Noroeste 18 Noroeste 0 -- -- 78
2019-07-26 07:00:00 17.8 8 Oeste 21 Noroeste 0 -- -- 81
2019-07-26 06:00:00 18.2 12 Noroeste 19 Noroeste 0 -- -- 79
2019-07-26 05:00:00 18.8 6 Noroeste 18 Noroeste 0 -- -- 78
2019-07-26 04:00:00 19.4 11 Oeste 24 Oeste 0 -- -- 76
2019-07-26 03:00:00 20.9 11 Noroeste 27 Noroeste 0 -- -- 69
2019-07-26 02:00:00 21.8 12 Noroeste 27 Noroeste 0 -- -- 63
2019-07-26 01:00:00 23.4 4 Oeste 12 Oeste 0 -- -- 55
2019-07-26 00:00:00 24.2 10 Norte 32 Noroeste 0 -- -- 50